Time;durP1;ratioP1;P1;durP2;ratioP2;P2;SDS_P1;SDS_P2;PMS_P1;PMS_P2;Temp;Humidity;BMP_temperature;BMP_pressure;BME280_temperature;BME280_humidity;BME280_pressure;Samples;Min_cycle;Max_cycle;Signal;HPM_P1;HPM_P2
2022/05/01 00:00:48;;;;;;;12.95;11.57;;;;;;;10.96;64.58;101200.31;4115035;28;20053;-57
2022/05/01 00:02:51;;;;;;;17.83;11.00;;;;;;;10.99;63.61;101205.63;4114454;28;20402;-58
2022/05/01 00:04:54;;;;;;;15.75;11.13;;;;;;;10.92;64.10;101202.81;4112444;28;20141;-58
2022/05/01 00:06:57;;;;;;;15.38;11.02;;;;;;;10.95;64.67;101202.88;4112117;28;20043;-58
2022/05/01 00:09:00;;;;;;;17.52;10.55;;;;;;;10.94;64.05;101204.63;4115183;28;20034;-58
2022/05/01 00:11:05;;;;;;;16.45;11.02;;;;;;;10.99;64.35;101204.72;4114170;28;20130;-58
2022/05/01 00:13:17;;;;;;;16.35;11.73;;;;;;;10.96;64.27;101204.66;4114452;28;20043;-58
2022/05/01 00:15:20;;;;;;;23.10;10.65;;;;;;;10.85;64.35;101199.19;4109339;28;20082;-58
2022/05/01 00:17:23;;;;;;;15.18;11.15;;;;;;;10.87;64.10;101194.03;4115018;28;20039;-58
2022/05/01 00:19:26;;;;;;;18.98;10.63;;;;;;;10.80;64.37;101187.78;4115154;28;20043;-58
2022/05/01 00:21:49;;;;;;;17.10;11.13;;;;;;;10.86;64.29;101192.25;4114340;28;20070;-58
2022/05/01 00:23:52;;;;;;;14.98;9.30;;;;;;;10.79;64.10;101186.91;4113737;28;20043;-58
2022/05/01 00:25:55;;;;;;;14.82;10.48;;;;;;;10.82;64.22;101181.78;4114968;28;20045;-58
2022/05/01 00:27:59;;;;;;;12.40;9.77;;;;;;;10.89;64.46;101187.13;4114849;28;20047;-58
2022/05/01 00:30:02;;;;;;;13.32;9.90;;;;;;;10.86;63.89;101185.31;4114327;28;20133;-58
2022/05/01 00:32:06;;;;;;;15.48;9.63;;;;;;;10.91;64.09;101188.06;4112547;28;20038;-58
2022/05/01 00:36:28;;;;;;;13.32;9.43;;;;;;;10.96;63.23;101192.50;4114594;28;20054;-58
2022/05/01 00:38:31;;;;;;;15.57;9.30;;;;;;;10.91;63.70;101188.94;4114807;28;20035;-58
2022/05/01 00:40:34;;;;;;;12.93;8.57;;;;;;;10.95;64.03;101190.78;4113130;28;20047;-58
2022/05/01 00:42:37;;;;;;;12.57;9.88;;;;;;;11.07;62.38;101184.97;4112577;28;20038;-58
2022/05/01 00:44:41;;;;;;;16.88;9.90;;;;;;;10.97;63.45;101183.88;4114172;28;20050;-58
2022/05/01 00:46:46;;;;;;;16.92;10.32;;;;;;;11.00;62.48;101190.88;4114020;28;20125;-57
2022/05/01 00:48:49;;;;;;;;;;;;;;;10.80;62.77;101180.84;4114999;28;20086;-58
2022/05/01 00:50:53;;;;;;;12.80;9.32;;;;;;;10.80;63.88;101178.25;4115141;28;19926;-58
2022/05/01 00:52:56;;;;;;;11.77;9.25;;;;;;;10.79;63.63;101184.31;4112262;28;20043;-58
2022/05/01 00:54:58;;;;;;;14.63;9.40;;;;;;;10.86;63.92;101176.66;4114736;28;20051;-58
2022/05/01 00:57:03;;;;;;;13.93;9.43;;;;;;;10.93;62.93;101183.75;4114781;28;20126;-58
2022/05/01 00:59:06;;;;;;;13.82;9.95;;;;;;;10.91;63.35;101182.88;4114435;28;20045;-58
2022/05/01 01:01:12;;;;;;;13.20;9.40;;;;;;;10.92;63.03;101182.91;4113648;28;20042;-58
2022/05/01 01:03:15;;;;;;;13.13;9.95;;;;;;;11.01;63.16;101177.03;4113098;28;20098;-57
2022/05/01 01:05:17;;;;;;;13.23;10.02;;;;;;;10.93;63.55;101173.38;4112813;28;20034;-58
2022/05/01 01:07:20;;;;;;;13.50;8.80;;;;;;;10.88;63.74;101164.53;4112919;28;20057;-57
2022/05/01 01:09:23;;;;;;;14.10;9.93;;;;;;;11.00;62.93;101170.06;4115283;28;20043;-58
2022/05/01 01:11:26;;;;;;;13.13;9.38;;;;;;;10.95;63.04;101171.66;4112686;28;20039;-57
2022/05/01 01:13:29;;;;;;;15.25;10.48;;;;;;;10.98;62.79;101169.13;4113956;28;20043;-57
2022/05/01 01:15:34;;;;;;;15.00;9.63;;;;;;;10.93;62.25;101171.63;4114885;28;20093;-58
2022/05/01 01:17:40;;;;;;;18.10;9.52;;;;;;;10.97;62.27;101165.66;4114417;28;20523;-57
2022/05/01 01:19:43;;;;;;;12.52;9.68;;;;;;;10.88;62.49;101159.34;4113301;28;20058;-58
2022/05/01 01:21:52;;;;;;;15.40;9.23;;;;;;;10.85;62.55;101159.28;4113507;28;20047;-58
2022/05/01 01:23:57;;;;;;;13.20;9.20;;;;;;;10.80;62.29;101162.63;4113607;28;20034;-57
2022/05/01 01:26:00;;;;;;;;;;;;;;;10.70;62.92;101167.59;4114572;28;20149;-58
2022/05/01 01:28:05;;;;;;;13.82;10.30;;;;;;;10.81;63.13;101167.00;4114202;28;19922;-58
2022/05/01 01:32:31;;;;;;;18.73;9.70;;;;;;;10.80;62.90;101167.84;4109845;28;20050;-57
2022/05/01 01:34:36;;;;;;;19.53;9.63;;;;;;;10.82;63.68;101166.19;4128219;28;20571;-57
2022/05/01 01:36:41;;;;;;;13.27;9.40;;;;;;;10.83;63.26;101170.53;4114170;28;20300;-57
2022/05/01 01:38:46;;;;;;;13.85;9.55;;;;;;;10.82;62.71;101162.72;4114543;28;20117;-57
2022/05/01 01:40:52;;;;;;;13.70;8.52;;;;;;;10.84;63.11;101161.00;4113993;28;20125;-58
2022/05/01 01:42:57;;;;;;;15.50;10.00;;;;;;;10.87;62.18;101162.81;4096243;28;20498;-58
2022/05/01 01:45:02;;;;;;;13.93;9.23;;;;;;;10.82;62.26;101158.38;4118120;28;20077;-57
2022/05/01 01:47:06;;;;;;;19.95;9.63;;;;;;;10.77;62.63;101167.78;4117147;28;20046;-58
2022/05/01 01:49:10;;;;;;;14.82;9.95;;;;;;;10.82;62.70;101173.13;4117318;28;20134;-58
2022/05/01 01:51:13;;;;;;;16.42;10.45;;;;;;;10.85;62.31;101164.47;4116084;28;20506;-58
2022/05/01 01:53:17;;;;;;;14.43;9.30;;;;;;;10.87;62.00;101158.47;4115970;28;20051;-57
2022/05/01 01:55:22;;;;;;;16.23;8.65;;;;;;;10.80;62.10;101164.38;4117193;28;20133;-57
2022/05/01 01:57:24;;;;;;;17.08;10.02;;;;;;;10.80;62.22;101164.38;4116338;28;20038;-58
2022/05/01 01:59:27;;;;;;;15.48;9.40;;;;;;;10.70;62.61;101155.44;4116324;28;20039;-57
2022/05/01 02:01:30;;;;;;;17.75;9.60;;;;;;;10.76;62.44;101162.53;4114650;28;20042;-58
2022/05/01 02:03:34;;;;;;;15.50;9.88;;;;;;;10.76;62.43;101155.63;4116898;28;20043;-57
2022/05/01 02:05:37;;;;;;;11.93;9.13;;;;;;;10.75;62.58;101159.06;4117338;28;20554;-57
2022/05/01 02:07:40;;;;;;;13.30;9.15;;;;;;;10.70;62.58;101150.25;4117060;28;20043;-58
2022/05/01 02:09:43;;;;;;;16.65;9.77;;;;;;;10.72;62.75;101147.69;4115734;28;20050;-57
2022/05/01 02:11:48;;;;;;;12.35;8.30;;;;;;;10.63;63.43;101156.13;4116759;28;20046;-58
2022/05/01 02:13:51;;;;;;;13.35;9.80;;;;;;;10.65;63.87;101163.16;4115429;28;20084;-57
2022/05/01 02:15:53;;;;;;;13.15;9.30;;;;;;;10.65;63.84;101157.06;4116845;28;20455;-58
2022/05/01 02:17:58;;;;;;;16.65;10.00;;;;;;;10.77;63.71;101154.75;4116758;28;20517;-57
2022/05/01 02:20:01;;;;;;;;;;;;;;;10.71;63.55;101156.34;4116115;28;20054;-58
2022/05/01 02:22:03;;;;;;;17.77;9.70;;;;;;;10.65;63.20;101147.53;4116787;28;19926;-58
2022/05/01 02:24:08;;;;;;;15.85;10.48;;;;;;;10.69;63.18;101148.50;4116659;28;20039;-58
2022/05/01 02:26:12;;;;;;;15.20;9.73;;;;;;;10.68;63.85;101146.75;4116699;28;20043;-58
2022/05/01 02:28:17;;;;;;;13.80;9.13;;;;;;;10.70;63.67;101147.66;4116676;28;20073;-57
2022/05/01 02:30:20;;;;;;;;;;;;;;;10.65;63.20;101146.69;4112038;28;20332;-58
2022/05/01 02:32:23;;;;;;;15.52;9.93;;;;;;;10.67;63.12;101141.50;4116691;28;19954;-57
2022/05/01 02:34:26;;;;;;;13.63;9.63;;;;;;;10.68;63.27;101138.94;4117281;28;20050;-57
2022/05/01 02:36:29;;;;;;;13.25;9.70;;;;;;;10.71;63.31;101136.41;4115249;28;20043;-58
2022/05/01 02:38:34;;;;;;;15.73;10.00;;;;;;;10.71;63.30;101135.56;4114928;28;20337;-58
2022/05/01 02:40:36;;;;;;;22.23;11.80;;;;;;;10.65;63.95;101144.06;4117016;28;20062;-58
2022/05/01 02:42:39;;;;;;;14.48;10.45;;;;;;;10.69;64.17;101140.72;4116455;28;20043;-58
2022/05/01 02:44:44;;;;;;;14.02;9.98;;;;;;;10.83;63.18;101149.75;4115317;28;20125;-58
2022/05/01 02:46:47;;;;;;;14.65;10.32;;;;;;;10.72;63.74;101134.69;4115604;28;20039;-58
2022/05/01 02:48:50;;;;;;;14.57;10.68;;;;;;;10.66;64.01;101132.84;4115293;28;20049;-58
2022/05/01 02:50:53;;;;;;;14.75;8.90;;;;;;;10.73;63.75;101132.16;4115825;28;20430;-58
2022/05/01 02:52:56;;;;;;;17.63;11.00;;;;;;;10.76;63.69;101132.22;4114912;28;20051;-58
2022/05/01 02:54:59;;;;;;;15.93;10.77;;;;;;;10.71;63.48;101141.63;4116308;28;20311;-58
2022/05/01 02:57:03;;;;;;;15.55;10.55;;;;;;;10.66;63.59;101132.84;4115374;28;20043;-58
2022/05/01 02:59:09;;;;;;;15.50;10.57;;;;;;;10.68;63.48;101133.75;4116287;28;20582;-58
2022/05/01 03:01:13;;;;;;;15.73;10.40;;;;;;;10.69;63.26;101132.91;4113994;28;20510;-58
2022/05/01 03:03:16;;;;;;;15.30;10.98;;;;;;;10.71;63.91;101136.41;4115754;28;20042;-58
2022/05/01 03:05:19;;;;;;;15.95;10.85;;;;;;;10.67;63.80;101129.38;4110415;28;20617;-58
2022/05/01 03:07:22;;;;;;;12.57;10.13;;;;;;;10.67;63.51;101141.50;4114987;28;20417;-58
2022/05/01 03:09:25;;;;;;;15.43;9.82;;;;;;;10.74;63.22;101136.50;4115993;28;20045;-58
2022/05/01 03:11:28;;;;;;;15.70;10.60;;;;;;;10.85;62.68;101128.97;4115341;28;20130;-58
2022/05/01 03:13:31;;;;;;;15.45;10.38;;;;;;;10.60;63.63;101133.56;4115883;28;20042;-58
2022/05/01 03:15:33;;;;;;;16.98;10.02;;;;;;;10.54;64.08;101133.41;4116477;28;20042;-58
2022/05/01 03:22:18;;;;;;;16.75;10.48;;;;;;;10.64;63.64;101135.41;4116008;28;20134;-58
2022/05/01 03:24:21;;;;;;;14.57;9.85;;;;;;;10.52;63.66;101142.00;4114198;28;20047;-57
2022/05/01 03:26:25;;;;;;;16.42;10.35;;;;;;;10.58;63.91;101129.16;4115998;28;20114;-58
2022/05/01 03:28:28;;;;;;;19.95;11.55;;;;;;;10.53;64.15;101130.75;4114906;28;20425;-58
2022/05/01 03:30:31;;;;;;;15.40;10.32;;;;;;;10.39;64.42;101128.69;4114936;28;20101;-57
2022/05/01 03:32:33;;;;;;;13.15;10.15;;;;;;;10.41;64.27;101124.41;4115049;28;20038;-58
2022/05/01 03:34:39;;;;;;;17.90;10.73;;;;;;;10.50;63.68;101125.47;4115551;28;20553;-58
2022/05/01 03:36:42;;;;;;;14.02;10.38;;;;;;;10.40;64.06;101125.25;4114528;28;20133;-58
2022/05/01 03:38:45;;;;;;;18.92;10.05;;;;;;;10.42;64.26;101120.97;4114892;28;20041;-58
2022/05/01 03:40:48;;;;;;;14.98;9.93;;;;;;;10.30;64.38;101118.03;4114633;28;20421;-58
2022/05/01 03:42:54;;;;;;;16.52;10.07;;;;;;;10.43;64.30;101114.94;4115094;28;20035;-58
2022/05/01 03:44:57;;;;;;;14.05;10.57;;;;;;;10.41;64.33;101119.22;4114472;28;20053;-57
2022/05/01 03:47:00;;;;;;;18.17;11.05;;;;;;;10.42;64.02;101113.16;4113610;28;20086;-57
2022/05/01 03:49:03;;;;;;;19.52;10.88;;;;;;;10.37;64.23;101107.00;4128256;28;20148;-57
2022/05/01 03:51:07;;;;;;;13.88;10.40;;;;;;;10.35;64.25;101116.44;4115100;28;20130;-58
2022/05/01 03:53:10;;;;;;;20.02;10.00;;;;;;;10.34;64.01;101104.31;4115304;28;20409;-57
2022/05/01 03:55:13;;;;;;;12.93;9.90;;;;;;;10.44;64.05;101106.31;4116135;28;20046;-58
2022/05/01 03:57:16;;;;;;;13.98;10.80;;;;;;;10.44;64.15;101106.31;4112739;28;20050;-58
2022/05/01 03:59:19;;;;;;;14.23;9.75;;;;;;;10.54;64.08;101111.72;4114645;28;20047;-58
2022/05/01 04:01:21;;;;;;;19.02;9.40;;;;;;;10.45;63.62;101109.78;4113959;28;20046;-58
2022/05/01 04:03:25;;;;;;;15.68;9.82;;;;;;;10.41;63.81;101106.22;4114673;28;20047;-58
2022/05/01 04:05:29;;;;;;;17.88;10.57;;;;;;;10.40;64.41;101104.47;4113128;28;20495;-57
2022/05/01 04:07:33;;;;;;;15.52;10.60;;;;;;;10.40;64.27;101107.06;4114930;28;20417;-57
2022/05/01 04:09:36;;;;;;;18.73;11.10;;;;;;;10.39;64.68;101102.69;4107967;28;20043;-57
2022/05/01 04:11:39;;;;;;;17.73;11.20;;;;;;;10.39;64.53;101102.69;4109520;28;20043;-58
2022/05/01 04:13:43;;;;;;;16.98;11.15;;;;;;;10.48;64.41;101110.75;4115198;28;20050;-57
2022/05/01 04:15:46;;;;;;;14.38;10.13;;;;;;;10.48;64.08;101102.03;4113611;28;20509;-57
2022/05/01 04:17:49;;;;;;;15.43;11.20;;;;;;;10.41;64.47;101106.22;4097919;28;20503;-57
2022/05/01 04:19:52;;;;;;;13.05;10.20;;;;;;;10.46;64.87;101108.94;4114720;28;20094;-58
2022/05/01 04:21:55;;;;;;;16.50;10.20;;;;;;;10.55;63.95;101109.16;4115039;28;20098;-57
2022/05/01 04:23:59;;;;;;;15.05;9.35;;;;;;;10.58;63.40;101108.34;4114956;28;20039;-57
2022/05/01 04:26:03;;;;;;;17.65;10.65;;;;;;;10.59;63.30;101107.53;4113473;28;20073;-57
2022/05/01 04:28:07;;;;;;;16.23;9.38;;;;;;;10.38;64.02;101110.44;4114768;28;20042;-57
2022/05/01 04:30:12;;;;;;;16.17;9.93;;;;;;;10.35;64.93;101113.84;4113757;28;20126;-57
2022/05/01 04:32:16;;;;;;;13.73;9.82;;;;;;;10.39;64.26;101118.28;4114175;28;20050;-57
2022/05/01 04:34:19;;;;;;;14.52;9.35;;;;;;;10.44;64.39;101111.50;4106779;28;20511;-58
2022/05/01 04:36:22;;;;;;;16.48;10.60;;;;;;;10.35;64.61;101112.97;4114006;28;20046;-58
2022/05/01 04:38:26;;;;;;;15.88;10.73;;;;;;;10.37;64.42;101114.78;4114429;28;20049;-58
2022/05/01 04:40:32;;;;;;;15.45;9.63;;;;;;;10.35;64.69;101121.63;4114543;28;20061;-58
2022/05/01 04:42:35;;;;;;;15.68;10.52;;;;;;;10.36;64.96;101118.22;4107552;28;22110;-58
2022/05/01 04:44:38;;;;;;;20.77;11.10;;;;;;;10.47;64.34;101127.16;4113957;28;20129;-58
2022/05/01 04:46:40;;;;;;;13.90;10.52;;;;;;;10.39;64.80;101128.69;4112823;28;20433;-58
2022/05/01 04:48:43;;;;;;;12.48;10.25;;;;;;;10.43;64.38;101130.53;4114655;28;20513;-57
2022/05/01 04:50:47;;;;;;;17.65;10.32;;;;;;;10.47;64.78;101126.31;4113980;28;20073;-57
2022/05/01 04:52:50;;;;;;;16.23;10.20;;;;;;;10.51;64.46;101129.84;4113499;28;20467;-57
2022/05/01 04:54:53;;;;;;;11.98;10.10;;;;;;;10.52;64.86;101142.00;4114393;28;20031;-58
2022/05/01 04:57:07;;;;;;;17.25;10.57;;;;;;;10.54;64.55;101132.53;4113035;28;20038;-58
2022/05/01 04:59:10;;;;;;;18.40;10.15;;;;;;;10.45;64.69;101133.16;4113718;28;20545;-58
2022/05/01 05:01:13;;;;;;;12.63;9.57;;;;;;;10.51;64.31;101138.50;4112029;28;20050;-58
2022/05/01 05:03:17;;;;;;;12.38;8.98;;;;;;;10.57;64.30;101137.78;4113858;28;20043;-58
2022/05/01 05:05:21;;;;;;;13.47;10.07;;;;;;;10.53;64.58;101139.44;4113359;28;20046;-57
2022/05/01 05:07:24;;;;;;;18.67;11.93;;;;;;;10.55;64.36;101134.28;4128860;28;20807;-58
2022/05/01 05:11:49;;;;;;;14.73;10.40;;;;;;;10.57;64.42;101148.19;4113542;28;20038;-58
2022/05/01 05:13:53;;;;;;;14.98;11.48;;;;;;;10.59;64.85;101146.53;4110821;28;20035;-58
2022/05/01 05:15:58;;;;;;;18.33;11.32;;;;;;;10.48;64.40;101148.84;4114362;28;20047;-57
2022/05/01 05:18:01;;;;;;;17.23;11.63;;;;;;;10.45;65.28;101144.47;4112851;28;20038;-58
2022/05/01 05:20:06;;;;;;;19.23;11.10;;;;;;;10.45;64.69;101152.25;4114014;28;20409;-58
2022/05/01 05:22:09;;;;;;;15.18;11.57;;;;;;;10.44;64.71;101144.38;4114203;28;20047;-58
2022/05/01 05:24:12;;;;;;;18.25;11.52;;;;;;;10.46;64.83;101154.00;4113628;28;20038;-57
2022/05/01 05:26:15;;;;;;;17.35;10.60;;;;;;;10.41;65.19;101153.00;4114179;28;20579;-58
2022/05/01 05:28:18;;;;;;;17.38;10.88;;;;;;;10.44;65.15;101150.50;4114667;28;20413;-58
2022/05/01 05:30:23;;;;;;;16.85;10.63;;;;;;;10.52;65.11;101148.06;4113901;28;20183;-58
2022/05/01 05:32:27;;;;;;;18.13;11.93;;;;;;;10.55;64.56;101155.09;4114041;28;20035;-57
2022/05/01 05:34:30;;;;;;;15.32;10.82;;;;;;;10.58;64.67;101157.75;4113350;28;20455;-58
2022/05/01 05:36:32;;;;;;;15.93;10.90;;;;;;;10.60;64.60;101156.06;4114185;28;20043;-58
2022/05/01 05:38:37;;;;;;;14.48;9.88;;;;;;;10.50;64.99;101156.66;4114102;28;20049;-58
2022/05/01 05:40:41;;;;;;;13.35;10.32;;;;;;;10.51;64.89;101161.91;4113763;28;20050;-58
2022/05/01 05:42:45;;;;;;;16.10;10.90;;;;;;;10.47;64.74;101160.97;4112997;28;20035;-58
2022/05/01 05:44:48;;;;;;;13.95;9.48;;;;;;;10.47;64.85;101154.91;4113246;28;20468;-58
2022/05/01 05:46:52;;;;;;;16.40;11.13;;;;;;;10.50;64.65;101157.56;4112996;28;20090;-58
2022/05/01 05:48:55;;;;;;;12.52;9.63;;;;;;;10.53;64.78;101157.66;4096859;28;20047;-57
2022/05/01 05:50:58;;;;;;;11.50;9.32;;;;;;;10.58;64.50;101165.56;4113578;28;20039;-57
2022/05/01 05:53:03;;;;;;;13.68;10.57;;;;;;;10.62;64.93;101162.19;4114047;28;20047;-57
2022/05/01 05:55:07;;;;;;;15.60;11.03;;;;;;;10.62;64.99;101165.66;4095504;29;20593;-58
2022/05/01 05:57:10;;;;;;;15.10;10.15;;;;;;;10.66;64.89;101164.03;4112964;28;20669;-58
2022/05/01 05:59:15;;;;;;;15.07;10.45;;;;;;;10.65;65.02;101170.06;4114038;28;20417;-57
2022/05/01 06:01:17;;;;;;;16.15;11.32;;;;;;;10.68;64.67;101162.34;4113662;28;20039;-58
2022/05/01 06:03:22;;;;;;;16.85;10.68;;;;;;;10.72;64.06;101172.00;4114831;28;20138;-58
2022/05/01 06:05:26;;;;;;;13.05;10.40;;;;;;;10.69;65.18;101169.31;4113913;28;20139;-58
2022/05/01 06:07:29;;;;;;;13.75;9.95;;;;;;;10.67;65.22;101167.50;4112867;28;20109;-58
2022/05/01 06:09:32;;;;;;;16.35;11.05;;;;;;;10.78;64.23;101172.13;4114596;28;20472;-58
2022/05/01 06:11:36;;;;;;;13.68;10.07;;;;;;;10.76;65.04;101170.34;4112937;28;20051;-58
2022/05/01 06:13:39;;;;;;;15.77;10.17;;;;;;;10.82;64.42;101173.97;4112725;28;20129;-58
2022/05/01 06:15:43;;;;;;;13.98;10.68;;;;;;;10.85;64.80;101174.88;4112472;28;20298;-57
2022/05/01 06:17:46;;;;;;;16.48;11.18;;;;;;;10.96;64.26;101176.03;4113907;28;20081;-58
2022/05/01 06:19:50;;;;;;;14.38;10.38;;;;;;;10.92;64.89;101171.59;4113704;28;20038;-58
2022/05/01 06:21:53;;;;;;;14.30;11.00;;;;;;;10.95;64.86;101176.88;4113897;28;20037;-57
2022/05/01 06:23:56;;;;;;;15.32;10.75;;;;;;;10.92;64.61;101172.50;4114780;28;20063;-58
2022/05/01 06:25:59;;;;;;;15.10;10.43;;;;;;;11.00;64.37;101175.28;4112324;28;20053;-57
2022/05/01 06:28:02;;;;;;;14.20;10.68;;;;;;;10.97;64.23;101175.19;4113124;28;20039;-58
2022/05/01 06:30:06;;;;;;;16.48;10.80;;;;;;;10.99;64.90;101177.00;4114906;28;20366;-58
2022/05/01 06:32:10;;;;;;;13.73;10.40;;;;;;;11.10;64.41;101177.25;4116363;28;20050;-58
2022/05/01 06:34:14;;;;;;;15.13;10.63;;;;;;;11.00;64.01;101167.47;4116216;28;20166;-58
2022/05/01 06:36:18;;;;;;;15.15;11.35;;;;;;;10.99;64.16;101171.81;4115415;28;20035;-57
2022/05/01 06:38:21;;;;;;;13.82;10.95;;;;;;;10.90;64.41;101178.50;4115692;28;20518;-57
2022/05/01 06:40:25;;;;;;;16.10;11.23;;;;;;;10.95;65.30;101172.56;4114489;28;20043;-57
2022/05/01 06:42:29;;;;;;;15.15;11.25;;;;;;;11.02;64.69;101170.97;4116535;28;20039;-57
2022/05/01 06:44:32;;;;;;;16.00;11.38;;;;;;;11.12;63.75;101182.47;4116568;28;20117;-57
2022/05/01 06:46:35;;;;;;;13.23;10.68;;;;;;;11.08;64.77;101173.75;4115845;28;20062;-57
2022/05/01 06:48:38;;;;;;;17.75;12.02;;;;;;;11.11;64.97;101172.91;4116170;28;20053;-58
2022/05/01 06:50:41;;;;;;;14.43;10.85;;;;;;;11.22;64.26;101181.84;4116188;28;20171;-57
2022/05/01 06:52:45;;;;;;;14.52;11.70;;;;;;;11.34;63.23;101179.50;4117067;28;20050;-58
2022/05/01 06:54:48;;;;;;;18.13;11.45;;;;;;;11.28;63.31;101182.00;4114368;28;20042;-58
2022/05/01 06:56:51;;;;;;;17.17;11.45;;;;;;;11.17;63.73;101179.16;4115553;28;20046;-57
2022/05/01 06:58:54;;;;;;;18.08;11.43;;;;;;;11.34;62.53;101176.03;4116435;28;20039;-58
2022/05/01 07:00:56;;;;;;;13.02;10.93;;;;;;;11.27;62.45;101188.06;4116004;28;20035;-57
2022/05/01 07:03:00;;;;;;;16.52;12.02;;;;;;;11.17;63.40;101179.16;4117050;28;20034;-58
2022/05/01 07:05:06;;;;;;;15.98;11.43;;;;;;;11.15;64.00;101186.03;4111914;28;20057;-58
2022/05/01 07:07:09;;;;;;;17.20;11.40;;;;;;;11.17;63.70;101179.16;4116780;28;20415;-57
2022/05/01 07:09:13;;;;;;;14.10;10.73;;;;;;;11.29;63.78;101186.34;4114049;28;20070;-57
2022/05/01 07:11:16;;;;;;;20.80;11.00;;;;;;;11.30;64.16;101184.63;4115738;28;20094;-57
2022/05/01 07:13:19;;;;;;;18.27;12.27;;;;;;;11.43;63.36;101181.44;4107656;28;20494;-57
2022/05/01 07:15:22;;;;;;;15.43;11.25;;;;;;;11.50;62.53;101182.47;4103993;28;20047;-58
2022/05/01 07:17:25;;;;;;;13.82;10.77;;;;;;;11.60;62.02;101188.78;4113836;28;20056;-58
2022/05/01 07:19:28;;;;;;;15.13;11.05;;;;;;;11.55;62.26;101179.97;4115556;28;20035;-58
2022/05/01 07:21:30;;;;;;;15.57;10.13;;;;;;;11.68;61.30;101184.59;4115661;28;20565;-58
2022/05/01 07:23:33;;;;;;;16.02;11.30;;;;;;;11.52;61.74;101184.28;4115751;28;20043;-57
2022/05/01 07:25:38;;;;;;;12.75;9.98;;;;;;;11.52;62.16;101185.97;4114078;28;20064;-57
2022/05/01 07:27:41;;;;;;;15.48;10.27;;;;;;;11.56;63.12;101181.72;4115797;28;20074;-57
2022/05/01 07:29:44;;;;;;;14.13;10.30;;;;;;;11.60;62.65;101188.78;4114419;28;20074;-57
2022/05/01 07:31:47;;;;;;;16.27;11.38;;;;;;;11.77;62.76;101187.41;4115490;28;20494;-57
2022/05/01 07:33:50;;;;;;;14.88;9.80;;;;;;;11.72;62.17;101180.34;4114763;28;20027;-57
2022/05/01 07:35:53;;;;;;;12.65;9.60;;;;;;;11.76;62.55;101185.63;4115433;28;20059;-58
2022/05/01 07:37:56;;;;;;;11.02;9.82;;;;;;;11.82;61.67;101185.75;4115338;28;20037;-57
2022/05/01 07:40:01;;;;;;;16.67;10.23;;;;;;;11.82;62.44;101185.75;4114520;28;20055;-58
2022/05/01 07:42:05;;;;;;;13.20;10.27;;;;;;;11.83;62.33;101178.84;4114080;28;20054;-57
2022/05/01 07:44:11;;;;;;;;;;;;;;;11.66;62.75;101176.75;4115523;28;20082;-58
2022/05/01 07:46:14;;;;;;;12.93;10.43;;;;;;;11.80;62.84;101177.06;4115455;28;19997;-57
2022/05/01 07:48:17;;;;;;;15.05;9.63;;;;;;;11.93;62.12;101175.63;4114449;28;20035;-57
2022/05/01 07:50:20;;;;;;;12.70;9.90;;;;;;;12.04;61.91;101173.22;4108324;28;20395;-57
2022/05/01 07:52:23;;;;;;;10.35;7.82;;;;;;;12.03;62.94;101168.84;4114591;28;20073;-57
2022/05/01 07:54:26;;;;;;;12.02;7.88;;;;;;;12.08;62.99;101172.44;4111866;28;20081;-57
2022/05/01 07:56:29;;;;;;;13.95;10.18;;;;;;;12.17;62.14;101172.59;4115249;28;20524;-57
2022/05/01 07:58:34;;;;;;;14.07;8.35;;;;;;;12.22;62.22;101170.06;4113920;28;20043;-58
2022/05/01 08:00:36;;;;;;;15.18;9.05;;;;;;;12.11;62.03;101167.28;4113719;28;20043;-57
2022/05/01 08:04:56;;;;;;;9.82;7.55;;;;;;;12.23;61.94;101164.00;4114645;28;20121;-56
2022/05/01 08:07:00;;;;;;;13.50;10.13;;;;;;;12.36;62.02;101158.16;4098402;28;20042;-57
2022/05/01 08:09:04;;;;;;;13.35;10.00;;;;;;;12.47;61.46;101161.00;4100081;28;20507;-57
2022/05/01 08:11:08;;;;;;;15.10;11.10;;;;;;;12.74;60.64;101164.91;4096393;28;20057;-56
2022/05/01 08:13:10;;;;;;;14.35;10.45;;;;;;;12.72;59.74;101161.41;4099087;29;20054;-57
2022/05/01 08:15:17;;;;;;;11.13;9.93;;;;;;;12.75;60.18;101161.47;4099307;29;20380;-57
2022/05/01 08:17:20;;;;;;;15.50;11.60;;;;;;;12.69;59.74;101163.97;4084069;29;20044;-57
2022/05/01 08:21:43;;;;;;;10.50;8.18;;;;;;;12.93;60.52;101155.66;4083866;29;20044;-57
2022/05/01 08:23:46;;;;;;;11.82;8.73;;;;;;;12.96;60.72;101157.44;4090456;29;20495;-57
2022/05/01 08:25:49;;;;;;;12.68;9.57;;;;;;;12.91;60.93;101158.22;4098203;28;20051;-57
2022/05/01 08:27:52;;;;;;;12.07;9.68;;;;;;;12.91;60.93;101158.22;4098104;28;20066;-57
2022/05/01 08:29:54;;;;;;;14.75;9.55;;;;;;;12.99;61.02;101162.69;4097747;28;20122;-56
2022/05/01 08:31:59;;;;;;;13.52;8.52;;;;;;;13.03;61.83;101167.13;4095462;28;20388;-57
2022/05/01 08:34:03;;;;;;;12.45;7.97;;;;;;;13.13;61.96;101165.50;4099396;28;20591;-58
2022/05/01 08:36:07;;;;;;;12.13;10.23;;;;;;;13.19;61.12;101161.25;4098557;29;20507;-66
2022/05/01 08:38:10;;;;;;;12.77;8.93;;;;;;;13.18;60.54;101156.88;4096623;28;20051;-63
2022/05/01 08:40:14;;;;;;;14.25;9.40;;;;;;;13.37;60.44;101163.28;4096868;28;20069;-62
2022/05/01 08:42:16;;;;;;;12.18;9.45;;;;;;;13.36;60.65;101161.56;4098814;28;20066;-64
2022/05/01 08:44:25;;;;;;;14.55;9.18;;;;;;;13.35;60.62;101154.56;4099361;28;20283;-64
2022/05/01 08:46:40;;;;;;;14.45;11.27;;;;;;;13.32;60.23;101161.47;4113155;28;20542;-61
2022/05/01 08:48:51;;;;;;;16.20;9.32;;;;;;;13.31;60.03;101151.88;4109356;28;20043;-66
2022/05/01 08:50:55;;;;;;;13.30;9.90;;;;;;;13.30;60.95;101156.19;4094509;28;20066;-59
2022/05/01 08:53:02;;;;;;;16.10;9.93;;;;;;;13.31;61.28;101155.34;4097267;28;20039;-60
2022/05/01 08:55:06;;;;;;;12.88;9.60;;;;;;;13.37;61.43;101162.41;4099182;28;20053;-61
2022/05/01 08:57:09;;;;;;;15.77;11.00;;;;;;;13.33;60.41;101155.34;4095810;28;20067;-63
2022/05/01 08:59:14;;;;;;;13.90;9.85;;;;;;;13.35;60.44;101158.91;4097723;28;20705;-61
2022/05/01 09:01:18;;;;;;;13.48;10.38;;;;;;;13.37;61.04;101157.19;4093289;28;20122;-66
2022/05/01 09:03:22;;;;;;;12.43;10.38;;;;;;;13.54;59.95;101160.91;4083374;29;20043;-61
2022/05/01 09:05:26;;;;;;;20.33;11.43;;;;;;;13.65;59.54;101154.94;4092093;29;20435;-60
2022/05/01 09:07:29;;;;;;;21.02;11.52;;;;;;;13.61;60.28;101162.75;4098324;28;20532;-60
2022/05/01 09:09:32;;;;;;;12.48;9.80;;;;;;;13.71;60.31;101157.63;4096184;28;20077;-59
2022/05/01 09:13:57;;;;;;;12.00;10.20;;;;;;;13.76;60.23;101156.84;4113864;28;20489;-60
2022/05/01 09:16:11;;;;;;;14.40;11.38;;;;;;;13.82;58.26;101160.41;4096203;29;20066;-60
2022/05/01 09:18:15;;;;;;;14.05;9.57;;;;;;;13.66;59.61;101154.09;4093228;29;20043;-59
2022/05/01 09:20:17;;;;;;;12.15;8.95;;;;;;;13.64;60.26;101158.41;4093009;28;20043;-59
2022/05/01 09:22:22;;;;;;;14.65;10.75;;;;;;;13.70;60.56;101161.13;4100843;28;20035;-59
2022/05/01 09:24:27;;;;;;;16.48;10.52;;;;;;;13.95;58.77;101157.06;4096241;28;20035;-58
2022/05/01 09:26:37;;;;;;;14.05;10.43;;;;;;;13.79;59.36;101156.00;4097031;28;20479;-59
2022/05/01 09:28:48;;;;;;;13.63;11.25;;;;;;;13.87;59.48;101154.38;4098468;28;20414;-58
2022/05/01 09:30:51;;;;;;;13.70;11.02;;;;;;;13.84;59.68;101148.22;4096003;28;20043;-58
2022/05/01 09:32:56;;;;;;;10.85;8.50;;;;;;;13.85;60.02;101149.97;4101002;28;20118;-59
2022/05/01 09:35:00;;;;;;;13.68;10.38;;;;;;;13.74;60.00;101157.66;4098605;28;20043;-58
2022/05/01 09:37:04;;;;;;;14.15;10.00;;;;;;;13.81;60.89;101158.63;4098391;28;20047;-58
2022/05/01 09:39:08;;;;;;;18.42;11.20;;;;;;;13.86;60.66;101150.00;4099441;28;20388;-58
2022/05/01 09:41:15;;;;;;;13.68;10.68;;;;;;;13.82;59.81;101158.66;4097678;28;20054;-59
2022/05/01 09:43:38;;;;;;;19.33;12.43;;;;;;;14.03;59.92;101152.81;4098043;28;20070;-59
2022/05/01 09:45:41;;;;;;;14.10;8.85;;;;;;;14.00;60.35;101151.88;4098500;28;20376;-61